DAL1210 KSAN-KSLC
Flight info
| Callsign | DAL1210 |
|---|---|
| Flight time | 1h 37m |
| Altitude | 33000 |
| Route | ZZOOO4 MTBAL CADEZ HAKMN/N0459F350 Q73 LAKRR MLF QWENN6 |
| Aircraft | A21N/M-SDE3FGHIRWY/LB1 |
Departure
| Time | 2026-05-06 20:01 |
|---|---|
| Airport | San Diego International Airport (KSAN) |
Arrival
| Time | 2026-05-06 21:38 |
|---|---|
| Airport | Salt Lake City International Airport (KSLC) |
| Time | Latitude | Longitude | Altitude | Speed | Heading |
|---|---|---|---|---|---|
| 2026-05-06 19:35 | 32.73375 | -117.20348 | 22 ft | 0 kts | 270° |
| 2026-05-06 19:48 | 32.73375 | -117.20331 | 22 ft | 2 kts | 270° |
| 2026-05-06 19:48 | 32.73375 | -117.20312 | 22 ft | 2 kts | 270° |
| 2026-05-06 19:48 | 32.73375 | -117.20295 | 22 ft | 2 kts | 270° |
| 2026-05-06 19:48 | 32.73371 | -117.20276 | 22 ft | 3 kts | 323° |
| 2026-05-06 19:49 | 32.73361 | -117.20271 | 22 ft | 1 kts | 351° |
| 2026-05-06 19:49 | 32.73358 | -117.20270 | 22 ft | 0 kts | 348° |
| 2026-05-06 19:50 | 32.73359 | -117.20271 | 22 ft | 0 kts | 348° |
| 2026-05-06 19:50 | 32.73363 | -117.20272 | 22 ft | 1 kts | 349° |
| 2026-05-06 19:51 | 32.73382 | -117.20273 | 22 ft | 4 kts | 4° |
| 2026-05-06 19:51 | 32.73414 | -117.20267 | 22 ft | 4 kts | 12° |
| 2026-05-06 19:51 | 32.73450 | -117.20257 | 22 ft | 5 kts | 15° |
| 2026-05-06 19:51 | 32.73489 | -117.20244 | 22 ft | 5 kts | 16° |
| 2026-05-06 19:52 | 32.73529 | -117.20221 | 22 ft | 7 kts | 42° |
| 2026-05-06 19:52 | 32.73540 | -117.20155 | 22 ft | 8 kts | 100° |
| 2026-05-06 19:52 | 32.73527 | -117.20092 | 22 ft | 7 kts | 106° |
| 2026-05-06 19:52 | 32.73513 | -117.20039 | 23 ft | 6 kts | 107° |
| 2026-05-06 19:53 | 32.73486 | -117.19925 | 23 ft | 16 kts | 106° |
| 2026-05-06 19:53 | 32.73452 | -117.19788 | 23 ft | 16 kts | 106° |
| 2026-05-06 19:53 | 32.73421 | -117.19658 | 24 ft | 16 kts | 105° |
| 2026-05-06 19:53 | 32.73391 | -117.19531 | 24 ft | 15 kts | 107° |
| 2026-05-06 19:54 | 32.73359 | -117.19404 | 24 ft | 15 kts | 106° |
| 2026-05-06 19:54 | 32.73329 | -117.19279 | 25 ft | 15 kts | 105° |
| 2026-05-06 19:54 | 32.73302 | -117.19160 | 25 ft | 13 kts | 106° |
| 2026-05-06 19:54 | 32.73276 | -117.19057 | 25 ft | 12 kts | 107° |
| 2026-05-06 19:55 | 32.73248 | -117.18941 | 25 ft | 17 kts | 105° |
| 2026-05-06 19:55 | 32.73213 | -117.18800 | 25 ft | 17 kts | 106° |
| 2026-05-06 19:55 | 32.73179 | -117.18660 | 25 ft | 17 kts | 105° |
| 2026-05-06 19:55 | 32.73149 | -117.18531 | 25 ft | 14 kts | 105° |
| 2026-05-06 19:56 | 32.73122 | -117.18424 | 25 ft | 12 kts | 107° |
| 2026-05-06 19:56 | 32.73099 | -117.18332 | 25 ft | 10 kts | 106° |
| 2026-05-06 19:56 | 32.73080 | -117.18251 | 25 ft | 10 kts | 106° |
| 2026-05-06 19:56 | 32.73061 | -117.18172 | 25 ft | 9 kts | 106° |
| 2026-05-06 19:57 | 32.73043 | -117.18103 | 25 ft | 9 kts | 106° |
| 2026-05-06 19:57 | 32.73021 | -117.18014 | 25 ft | 11 kts | 106° |
| 2026-05-06 19:57 | 32.72998 | -117.17918 | 26 ft | 10 kts | 105° |
| 2026-05-06 19:57 | 32.72979 | -117.17838 | 26 ft | 9 kts | 106° |
| 2026-05-06 19:58 | 32.72961 | -117.17764 | 26 ft | 7 kts | 106° |
| 2026-05-06 19:58 | 32.72960 | -117.17759 | 26 ft | 0 kts | 105° |
| 2026-05-06 19:58 | 32.72954 | -117.17741 | 26 ft | 2 kts | 112° |
| 2026-05-06 19:58 | 32.72948 | -117.17715 | 26 ft | 4 kts | 97° |
| 2026-05-06 19:59 | 32.72957 | -117.17654 | 27 ft | 10 kts | 72° |
| 2026-05-06 19:59 | 32.72982 | -117.17585 | 27 ft | 5 kts | 52° |
| 2026-05-06 19:59 | 32.73011 | -117.17581 | 27 ft | 4 kts | 319° |
| 2026-05-06 19:59 | 32.73022 | -117.17602 | 27 ft | 0 kts | 290° |
| 2026-05-06 20:00 | 32.73023 | -117.17605 | 27 ft | 4 kts | 289° |
| 2026-05-06 20:00 | 32.73106 | -117.17946 | 26 ft | 80 kts | 285° |
| 2026-05-06 20:00 | 32.73317 | -117.18832 | 25 ft | 138 kts | 286° |
| 2026-05-06 20:01 | 32.73628 | -117.20104 | 97 ft | 177 kts | 285° |
| 2026-05-06 20:01 | 32.74011 | -117.21639 | 661 ft | 173 kts | 288° |
| 2026-05-06 20:01 | 32.74426 | -117.23146 | 1246 ft | 174 kts | 286° |
| 2026-05-06 20:01 | 32.74722 | -117.24786 | 1654 ft | 187 kts | 282° |
| 2026-05-06 20:02 | 32.74986 | -117.26578 | 2013 ft | 203 kts | 281° |
| 2026-05-06 20:02 | 32.75256 | -117.28487 | 2318 ft | 221 kts | 281° |
| 2026-05-06 20:02 | 32.75547 | -117.30559 | 2555 ft | 234 kts | 281° |
| 2026-05-06 20:02 | 32.75854 | -117.32787 | 2843 ft | 248 kts | 281° |
| 2026-05-06 20:03 | 32.76153 | -117.34983 | 3153 ft | 260 kts | 281° |
| 2026-05-06 20:03 | 32.76460 | -117.37292 | 3670 ft | 264 kts | 281° |
| 2026-05-06 20:03 | 32.76722 | -117.39611 | 4211 ft | 268 kts | 274° |
| 2026-05-06 20:03 | 32.76218 | -117.41889 | 4678 ft | 278 kts | 238° |
| 2026-05-06 20:04 | 32.74640 | -117.43446 | 5206 ft | 287 kts | 200° |
| 2026-05-06 20:04 | 32.72598 | -117.43702 | 5995 ft | 286 kts | 168° |
| 2026-05-06 20:04 | 32.70693 | -117.42755 | 6743 ft | 282 kts | 138° |
| 2026-05-06 20:04 | 32.69454 | -117.40892 | 7444 ft | 275 kts | 108° |
| 2026-05-06 20:05 | 32.68896 | -117.38607 | 8157 ft | 275 kts | 100° |
| 2026-05-06 20:05 | 32.68377 | -117.36284 | 8837 ft | 279 kts | 101° |
| 2026-05-06 20:05 | 32.67819 | -117.33933 | 9514 ft | 282 kts | 102° |
| 2026-05-06 20:05 | 32.67232 | -117.31546 | 10213 ft | 284 kts | 102° |
| 2026-05-06 20:06 | 32.66606 | -117.29022 | 10620 ft | 298 kts | 102° |
| 2026-05-06 20:06 | 32.65949 | -117.26398 | 10933 ft | 314 kts | 102° |
| 2026-05-06 20:06 | 32.65237 | -117.23592 | 11240 ft | 329 kts | 103° |
| 2026-05-06 20:06 | 32.64502 | -117.20718 | 11740 ft | 337 kts | 103° |
| 2026-05-06 20:07 | 32.63714 | -117.17657 | 12430 ft | 340 kts | 103° |
| 2026-05-06 20:07 | 32.62939 | -117.14632 | 13104 ft | 342 kts | 103° |
| 2026-05-06 20:07 | 32.62362 | -117.11739 | 13659 ft | 341 kts | 91° |
| 2026-05-06 20:07 | 32.62512 | -117.08740 | 14222 ft | 338 kts | 75° |
| 2026-05-06 20:08 | 32.63291 | -117.05955 | 14826 ft | 337 kts | 66° |
| 2026-05-06 20:08 | 32.64216 | -117.03192 | 15405 ft | 339 kts | 66° |
| 2026-05-06 20:08 | 32.65110 | -117.00519 | 15961 ft | 341 kts | 66° |
| 2026-05-06 20:08 | 32.65953 | -116.97784 | 16512 ft | 344 kts | 70° |
| 2026-05-06 20:09 | 32.66511 | -116.94909 | 17003 ft | 349 kts | 78° |
| 2026-05-06 20:09 | 32.66744 | -116.91965 | 17514 ft | 353 kts | 84° |
| 2026-05-06 20:09 | 32.66825 | -116.89022 | 18064 ft | 353 kts | 85° |
| 2026-05-06 20:09 | 32.66886 | -116.86043 | 18529 ft | 355 kts | 85° |
| 2026-05-06 20:10 | 32.66948 | -116.83039 | 18977 ft | 358 kts | 84° |
| 2026-05-06 20:10 | 32.67073 | -116.80019 | 19412 ft | 357 kts | 78° |
| 2026-05-06 20:10 | 32.67852 | -116.77238 | 19804 ft | 353 kts | 59° |
| 2026-05-06 20:10 | 32.69331 | -116.74950 | 20255 ft | 351 kts | 43° |
| 2026-05-06 20:11 | 32.71359 | -116.73302 | 20654 ft | 354 kts | 26° |
| 2026-05-06 20:11 | 32.73640 | -116.72157 | 21068 ft | 356 kts | 24° |
| 2026-05-06 20:11 | 32.75944 | -116.71033 | 21445 ft | 359 kts | 24° |
| 2026-05-06 20:11 | 32.78267 | -116.69896 | 21621 ft | 366 kts | 24° |
| 2026-05-06 20:12 | 32.80650 | -116.68726 | 21936 ft | 370 kts | 24° |
| 2026-05-06 20:12 | 32.83025 | -116.67564 | 22336 ft | 371 kts | 24° |
| 2026-05-06 20:12 | 32.85414 | -116.66395 | 22720 ft | 371 kts | 24° |
| 2026-05-06 20:12 | 32.87814 | -116.65217 | 23070 ft | 373 kts | 24° |
| 2026-05-06 20:13 | 32.90230 | -116.64031 | 23390 ft | 375 kts | 24° |
| 2026-05-06 20:13 | 32.92649 | -116.62840 | 23738 ft | 377 kts | 24° |
| 2026-05-06 20:13 | 32.95097 | -116.61638 | 24053 ft | 378 kts | 24° |
| 2026-05-06 20:13 | 32.97552 | -116.60432 | 24409 ft | 379 kts | 24° |
| 2026-05-06 20:14 | 32.99989 | -116.59237 | 24699 ft | 381 kts | 24° |
| 2026-05-06 20:14 | 33.02451 | -116.58002 | 25000 ft | 383 kts | 25° |
| 2026-05-06 20:14 | 33.04899 | -116.56727 | 25290 ft | 385 kts | 25° |
| 2026-05-06 20:14 | 33.07368 | -116.55433 | 25581 ft | 386 kts | 26° |
| 2026-05-06 20:15 | 33.09846 | -116.54133 | 25865 ft | 388 kts | 26° |
| 2026-05-06 20:15 | 33.12323 | -116.52835 | 26140 ft | 390 kts | 26° |
| 2026-05-06 20:15 | 33.14815 | -116.51527 | 26454 ft | 390 kts | 26° |
| 2026-05-06 20:15 | 33.17325 | -116.50211 | 26746 ft | 391 kts | 25° |
| 2026-05-06 20:16 | 33.19820 | -116.48900 | 27031 ft | 392 kts | 25° |
| 2026-05-06 20:16 | 33.22318 | -116.47591 | 27324 ft | 393 kts | 25° |
| 2026-05-06 20:16 | 33.24854 | -116.46262 | 27553 ft | 395 kts | 25° |
| 2026-05-06 20:16 | 33.27371 | -116.44939 | 27796 ft | 397 kts | 26° |
| 2026-05-06 20:17 | 33.29895 | -116.43614 | 28017 ft | 399 kts | 26° |
| 2026-05-06 20:17 | 33.32456 | -116.42267 | 28233 ft | 401 kts | 25° |
| 2026-05-06 20:17 | 33.35026 | -116.40915 | 28492 ft | 401 kts | 26° |
| 2026-05-06 20:17 | 33.37502 | -116.39346 | 28729 ft | 401 kts | 33° |
| 2026-05-06 20:18 | 33.39731 | -116.37396 | 28977 ft | 400 kts | 40° |
| 2026-05-06 20:18 | 33.41730 | -116.35068 | 29257 ft | 400 kts | 47° |
| 2026-05-06 20:18 | 33.43476 | -116.32434 | 29568 ft | 400 kts | 52° |
| 2026-05-06 20:18 | 33.45096 | -116.29773 | 29905 ft | 399 kts | 53° |
| 2026-05-06 20:19 | 33.46719 | -116.27073 | 30257 ft | 397 kts | 53° |
| 2026-05-06 20:19 | 33.48322 | -116.24390 | 30612 ft | 395 kts | 53° |
| 2026-05-06 20:19 | 33.49929 | -116.21707 | 30904 ft | 394 kts | 53° |
| 2026-05-06 20:19 | 33.51528 | -116.19027 | 31192 ft | 394 kts | 53° |
| 2026-05-06 20:20 | 33.53124 | -116.16357 | 31517 ft | 392 kts | 53° |
| 2026-05-06 20:20 | 33.54705 | -116.13711 | 31782 ft | 392 kts | 53° |
| 2026-05-06 20:20 | 33.56286 | -116.11060 | 31973 ft | 393 kts | 53° |
| 2026-05-06 20:20 | 33.57901 | -116.08373 | 32164 ft | 394 kts | 52° |
| 2026-05-06 20:21 | 33.59592 | -116.05791 | 32371 ft | 395 kts | 50° |
| 2026-05-06 20:21 | 33.61407 | -116.03279 | 32596 ft | 395 kts | 47° |
| 2026-05-06 20:21 | 33.63311 | -116.00903 | 32801 ft | 395 kts | 45° |
| 2026-05-06 20:21 | 33.65268 | -115.98622 | 32995 ft | 396 kts | 44° |
| 2026-05-06 20:22 | 33.69258 | -115.94024 | 33070 ft | 396 kts | 44° |
| 2026-05-06 20:22 | 33.73233 | -115.89439 | 33088 ft | 396 kts | 44° |
| 2026-05-06 20:23 | 33.77195 | -115.84872 | 33106 ft | 396 kts | 44° |
| 2026-05-06 20:23 | 33.81186 | -115.80262 | 33110 ft | 397 kts | 44° |
| 2026-05-06 20:24 | 33.85166 | -115.75658 | 33108 ft | 397 kts | 44° |
| 2026-05-06 20:24 | 33.89140 | -115.71056 | 33102 ft | 396 kts | 44° |
| 2026-05-06 20:25 | 33.93114 | -115.66451 | 33085 ft | 396 kts | 44° |
| 2026-05-06 20:25 | 33.97091 | -115.61826 | 33062 ft | 396 kts | 44° |
| 2026-05-06 20:26 | 34.01052 | -115.57220 | 33047 ft | 396 kts | 44° |
| 2026-05-06 20:26 | 34.05020 | -115.52599 | 33040 ft | 396 kts | 44° |
| 2026-05-06 20:27 | 34.09198 | -115.47720 | 33030 ft | 397 kts | 44° |
| 2026-05-06 20:27 | 34.13161 | -115.43089 | 33031 ft | 397 kts | 44° |
| 2026-05-06 20:28 | 34.17428 | -115.38827 | 33029 ft | 397 kts | 36° |
| 2026-05-06 20:28 | 34.22201 | -115.35515 | 33028 ft | 400 kts | 27° |
| 2026-05-06 20:29 | 34.27465 | -115.33189 | 33024 ft | 402 kts | 19° |
| 2026-05-06 20:29 | 34.32982 | -115.31851 | 33024 ft | 406 kts | 14° |
| 2026-05-06 20:30 | 34.41360 | -115.30164 | 33026 ft | 407 kts | 14° |
| 2026-05-06 20:31 | 34.46944 | -115.29045 | 33029 ft | 406 kts | 13° |
| 2026-05-06 20:31 | 34.52568 | -115.27919 | 33038 ft | 405 kts | 13° |
| 2026-05-06 20:32 | 34.58099 | -115.26810 | 33042 ft | 405 kts | 13° |
| 2026-05-06 20:32 | 34.63691 | -115.25688 | 33046 ft | 405 kts | 13° |
| 2026-05-06 20:33 | 34.69287 | -115.24564 | 33040 ft | 406 kts | 13° |
| 2026-05-06 20:33 | 34.75078 | -115.23397 | 33040 ft | 406 kts | 13° |
| 2026-05-06 20:34 | 34.81084 | -115.22183 | 33046 ft | 406 kts | 13° |
| 2026-05-06 20:34 | 34.87106 | -115.20969 | 33056 ft | 406 kts | 13° |
| 2026-05-06 20:35 | 34.92819 | -115.19814 | 33062 ft | 405 kts | 13° |
| 2026-05-06 20:35 | 34.98402 | -115.18683 | 33070 ft | 405 kts | 13° |
| 2026-05-06 20:36 | 35.03994 | -115.17548 | 33073 ft | 406 kts | 13° |
| 2026-05-06 20:36 | 35.09553 | -115.16419 | 33084 ft | 405 kts | 13° |
| 2026-05-06 20:37 | 35.15219 | -115.15267 | 33097 ft | 405 kts | 13° |
| 2026-05-06 20:37 | 35.20924 | -115.14102 | 33090 ft | 405 kts | 13° |
| 2026-05-06 20:38 | 35.26699 | -115.12925 | 33443 ft | 407 kts | 13° |
| 2026-05-06 20:38 | 35.29534 | -115.12347 | 33774 ft | 404 kts | 13° |
| 2026-05-06 20:38 | 35.32317 | -115.11777 | 34109 ft | 401 kts | 13° |
| 2026-05-06 20:38 | 35.35099 | -115.11208 | 34397 ft | 400 kts | 13° |
| 2026-05-06 20:39 | 35.37943 | -115.10626 | 34636 ft | 400 kts | 13° |
| 2026-05-06 20:39 | 35.40696 | -115.10061 | 34846 ft | 400 kts | 13° |
| 2026-05-06 20:39 | 35.43431 | -115.09330 | 35047 ft | 398 kts | 18° |
| 2026-05-06 20:40 | 35.48565 | -115.06982 | 35080 ft | 395 kts | 27° |
| 2026-05-06 20:40 | 35.53261 | -115.03500 | 35085 ft | 393 kts | 37° |
| 2026-05-06 20:41 | 35.57342 | -114.99008 | 35081 ft | 394 kts | 45° |
| 2026-05-06 20:41 | 35.61139 | -114.93890 | 35067 ft | 394 kts | 46° |
| 2026-05-06 20:42 | 35.64825 | -114.88845 | 35053 ft | 395 kts | 46° |
| 2026-05-06 20:42 | 35.68742 | -114.83491 | 35036 ft | 395 kts | 46° |
| 2026-05-06 20:43 | 35.72388 | -114.78514 | 35029 ft | 395 kts | 46° |
| 2026-05-06 20:43 | 35.76263 | -114.73206 | 35023 ft | 394 kts | 46° |
| 2026-05-06 20:44 | 35.79969 | -114.68124 | 35026 ft | 393 kts | 46° |
| 2026-05-06 20:44 | 35.83654 | -114.63056 | 35029 ft | 394 kts | 46° |
| 2026-05-06 20:45 | 35.87360 | -114.57954 | 35030 ft | 395 kts | 46° |
| 2026-05-06 20:45 | 35.91053 | -114.52863 | 35034 ft | 395 kts | 46° |
| 2026-05-06 20:46 | 35.94726 | -114.47789 | 35034 ft | 394 kts | 46° |
| 2026-05-06 20:46 | 35.98402 | -114.42700 | 35028 ft | 394 kts | 46° |
| 2026-05-06 20:47 | 36.02088 | -114.37596 | 35024 ft | 395 kts | 45° |
| 2026-05-06 20:47 | 36.06048 | -114.32822 | 35026 ft | 394 kts | 40° |
| 2026-05-06 20:48 | 36.10442 | -114.28656 | 35033 ft | 394 kts | 34° |
| 2026-05-06 20:48 | 36.15206 | -114.25165 | 35048 ft | 394 kts | 28° |
| 2026-05-06 20:49 | 36.20193 | -114.22311 | 35061 ft | 393 kts | 25° |
| 2026-05-06 20:49 | 36.25238 | -114.19556 | 35064 ft | 394 kts | 25° |
| 2026-05-06 20:50 | 36.30338 | -114.16776 | 35058 ft | 394 kts | 25° |
| 2026-05-06 20:50 | 36.35395 | -114.14020 | 35053 ft | 394 kts | 25° |
| 2026-05-06 20:51 | 36.40474 | -114.11247 | 35052 ft | 393 kts | 24° |
| 2026-05-06 20:51 | 36.45532 | -114.08484 | 35053 ft | 394 kts | 24° |
| 2026-05-06 20:52 | 36.50606 | -114.05707 | 35058 ft | 394 kts | 24° |
| 2026-05-06 20:52 | 36.55670 | -114.02931 | 35061 ft | 394 kts | 24° |
| 2026-05-06 20:53 | 36.60867 | -114.00079 | 35058 ft | 394 kts | 24° |
| 2026-05-06 20:53 | 36.66153 | -113.97173 | 35050 ft | 394 kts | 24° |
| 2026-05-06 20:54 | 36.71236 | -113.94376 | 35054 ft | 394 kts | 24° |
| 2026-05-06 20:54 | 36.76326 | -113.91569 | 35058 ft | 394 kts | 24° |
| 2026-05-06 20:55 | 36.81408 | -113.88763 | 35068 ft | 395 kts | 24° |
| 2026-05-06 20:55 | 36.86488 | -113.85956 | 35083 ft | 394 kts | 24° |
| 2026-05-06 20:56 | 36.91505 | -113.83178 | 35096 ft | 393 kts | 24° |
| 2026-05-06 20:56 | 36.96543 | -113.80384 | 35105 ft | 394 kts | 24° |
| 2026-05-06 20:57 | 37.01617 | -113.77567 | 35108 ft | 394 kts | 24° |
| 2026-05-06 20:57 | 37.06650 | -113.74767 | 35116 ft | 393 kts | 24° |
| 2026-05-06 20:58 | 37.11708 | -113.71948 | 35130 ft | 393 kts | 24° |
| 2026-05-06 20:58 | 37.16696 | -113.69167 | 35137 ft | 393 kts | 24° |
| 2026-05-06 20:59 | 37.21717 | -113.66361 | 35146 ft | 393 kts | 24° |
| 2026-05-06 20:59 | 37.26728 | -113.63556 | 35162 ft | 394 kts | 24° |
| 2026-05-06 21:00 | 37.31768 | -113.60733 | 35173 ft | 393 kts | 23° |
| 2026-05-06 21:00 | 37.37249 | -113.57659 | 35186 ft | 393 kts | 24° |
| 2026-05-06 21:01 | 37.42926 | -113.54469 | 35198 ft | 393 kts | 23° |
| 2026-05-06 21:01 | 37.48557 | -113.51300 | 35200 ft | 392 kts | 24° |
| 2026-05-06 21:02 | 37.54303 | -113.48058 | 35206 ft | 393 kts | 23° |
| 2026-05-06 21:02 | 37.59581 | -113.45077 | 35198 ft | 394 kts | 23° |
| 2026-05-06 21:03 | 37.64618 | -113.42230 | 35206 ft | 394 kts | 23° |
| 2026-05-06 21:03 | 37.69655 | -113.39375 | 35213 ft | 394 kts | 23° |
| 2026-05-06 21:04 | 37.74739 | -113.36492 | 35216 ft | 394 kts | 23° |
| 2026-05-06 21:04 | 37.79730 | -113.33654 | 35220 ft | 394 kts | 24° |
| 2026-05-06 21:05 | 37.84728 | -113.30810 | 35219 ft | 393 kts | 24° |
| 2026-05-06 21:05 | 37.89724 | -113.27963 | 35225 ft | 393 kts | 24° |
| 2026-05-06 21:06 | 37.94766 | -113.25085 | 35230 ft | 394 kts | 24° |
| 2026-05-06 21:06 | 37.99768 | -113.22225 | 35230 ft | 394 kts | 23° |
| 2026-05-06 21:07 | 38.04747 | -113.19375 | 35231 ft | 393 kts | 24° |
| 2026-05-06 21:07 | 38.09725 | -113.16521 | 35232 ft | 392 kts | 23° |
| 2026-05-06 21:08 | 38.14691 | -113.13668 | 35231 ft | 393 kts | 23° |
| 2026-05-06 21:08 | 38.19706 | -113.10783 | 35229 ft | 393 kts | 24° |
| 2026-05-06 21:09 | 38.24680 | -113.07916 | 35219 ft | 393 kts | 23° |
| 2026-05-06 21:09 | 38.29674 | -113.05032 | 35211 ft | 393 kts | 23° |
| 2026-05-06 21:10 | 38.34647 | -113.02159 | 35205 ft | 393 kts | 23° |
| 2026-05-06 21:10 | 38.39688 | -112.99374 | 35198 ft | 394 kts | 21° |
| 2026-05-06 21:11 | 38.44799 | -112.96681 | 35198 ft | 393 kts | 21° |
| 2026-05-06 21:11 | 38.49833 | -112.94012 | 35204 ft | 392 kts | 21° |
| 2026-05-06 21:12 | 38.54878 | -112.91322 | 35203 ft | 393 kts | 21° |
| 2026-05-06 21:12 | 38.59946 | -112.88612 | 35208 ft | 393 kts | 21° |
| 2026-05-06 21:13 | 38.65023 | -112.85893 | 35213 ft | 394 kts | 21° |
| 2026-05-06 21:13 | 38.70137 | -112.83148 | 35211 ft | 394 kts | 21° |
| 2026-05-06 21:14 | 38.75221 | -112.80418 | 35211 ft | 394 kts | 21° |
| 2026-05-06 21:14 | 38.80372 | -112.77644 | 35212 ft | 393 kts | 21° |
| 2026-05-06 21:15 | 38.85472 | -112.74895 | 35210 ft | 393 kts | 21° |
| 2026-05-06 21:15 | 38.90657 | -112.72102 | 35208 ft | 393 kts | 21° |
| 2026-05-06 21:16 | 38.95985 | -112.69222 | 35205 ft | 393 kts | 21° |
| 2026-05-06 21:16 | 38.98608 | -112.67802 | 35062 ft | 394 kts | 21° |
| 2026-05-06 21:16 | 39.01140 | -112.66431 | 34486 ft | 396 kts | 21° |
| 2026-05-06 21:16 | 39.03701 | -112.65044 | 33587 ft | 401 kts | 21° |
| 2026-05-06 21:17 | 39.06291 | -112.63640 | 32574 ft | 407 kts | 21° |
| 2026-05-06 21:17 | 39.08908 | -112.62220 | 31704 ft | 410 kts | 21° |
| 2026-05-06 21:17 | 39.11580 | -112.60767 | 30915 ft | 411 kts | 21° |
| 2026-05-06 21:17 | 39.14205 | -112.59338 | 30145 ft | 412 kts | 21° |
| 2026-05-06 21:18 | 39.16861 | -112.57892 | 29370 ft | 413 kts | 21° |
| 2026-05-06 21:18 | 39.19508 | -112.56448 | 28663 ft | 412 kts | 21° |
| 2026-05-06 21:18 | 39.22184 | -112.54985 | 28167 ft | 406 kts | 21° |
| 2026-05-06 21:18 | 39.24829 | -112.53538 | 27663 ft | 401 kts | 21° |
| 2026-05-06 21:19 | 39.27403 | -112.52132 | 27164 ft | 396 kts | 21° |
| 2026-05-06 21:19 | 39.29968 | -112.50729 | 26667 ft | 391 kts | 21° |
| 2026-05-06 21:19 | 39.32473 | -112.49324 | 26176 ft | 387 kts | 22° |
| 2026-05-06 21:19 | 39.34981 | -112.47887 | 25693 ft | 383 kts | 22° |
| 2026-05-06 21:20 | 39.37420 | -112.46486 | 25227 ft | 379 kts | 22° |
| 2026-05-06 21:20 | 39.39062 | -112.45541 | 24914 ft | 376 kts | 22° |
| 2026-05-06 21:20 | 39.42302 | -112.43677 | 24284 ft | 371 kts | 22° |
| 2026-05-06 21:20 | 39.44661 | -112.42320 | 23827 ft | 367 kts | 22° |
| 2026-05-06 21:21 | 39.47014 | -112.40965 | 23371 ft | 363 kts | 22° |
| 2026-05-06 21:21 | 39.49357 | -112.39615 | 22921 ft | 360 kts | 22° |
| 2026-05-06 21:21 | 39.51645 | -112.38297 | 22471 ft | 357 kts | 22° |
| 2026-05-06 21:21 | 39.53960 | -112.36963 | 21998 ft | 354 kts | 22° |
| 2026-05-06 21:22 | 39.56239 | -112.35646 | 21531 ft | 352 kts | 22° |
| 2026-05-06 21:22 | 39.58542 | -112.34315 | 21058 ft | 350 kts | 22° |
| 2026-05-06 21:22 | 39.60770 | -112.33029 | 20578 ft | 348 kts | 22° |
| 2026-05-06 21:22 | 39.63012 | -112.31735 | 20087 ft | 347 kts | 22° |
| 2026-05-06 21:23 | 39.65258 | -112.30439 | 19579 ft | 346 kts | 22° |
| 2026-05-06 21:23 | 39.67527 | -112.29128 | 19077 ft | 345 kts | 22° |
| 2026-05-06 21:23 | 39.69736 | -112.27851 | 18599 ft | 344 kts | 22° |
| 2026-05-06 21:23 | 39.72067 | -112.26500 | 18090 ft | 343 kts | 22° |
| 2026-05-06 21:24 | 39.74373 | -112.25163 | 17587 ft | 342 kts | 22° |
| 2026-05-06 21:24 | 39.76631 | -112.23854 | 17103 ft | 340 kts | 22° |
| 2026-05-06 21:24 | 39.78907 | -112.22532 | 16603 ft | 339 kts | 22° |
| 2026-05-06 21:24 | 39.81185 | -112.21210 | 16109 ft | 337 kts | 22° |
| 2026-05-06 21:25 | 39.83448 | -112.19895 | 15615 ft | 335 kts | 22° |
| 2026-05-06 21:25 | 39.85686 | -112.18592 | 15131 ft | 334 kts | 22° |
| 2026-05-06 21:25 | 39.87914 | -112.17293 | 14680 ft | 330 kts | 22° |
| 2026-05-06 21:25 | 39.90100 | -112.16016 | 14519 ft | 317 kts | 22° |
| 2026-05-06 21:26 | 39.92210 | -112.14784 | 14364 ft | 304 kts | 22° |
| 2026-05-06 21:26 | 39.94224 | -112.13605 | 14206 ft | 291 kts | 22° |
| 2026-05-06 21:26 | 39.96152 | -112.12491 | 14047 ft | 279 kts | 20° |
| 2026-05-06 21:26 | 39.98028 | -112.11576 | 13959 ft | 271 kts | 16° |
| 2026-05-06 21:27 | 39.99954 | -112.10796 | 13970 ft | 274 kts | 15° |
| 2026-05-06 21:27 | 40.01869 | -112.10033 | 13970 ft | 274 kts | 15° |
| 2026-05-06 21:27 | 40.03780 | -112.09274 | 13969 ft | 274 kts | 15° |
| 2026-05-06 21:27 | 40.05672 | -112.08521 | 13974 ft | 274 kts | 15° |
| 2026-05-06 21:28 | 40.07647 | -112.07735 | 13967 ft | 273 kts | 15° |
| 2026-05-06 21:28 | 40.09588 | -112.06960 | 13975 ft | 274 kts | 16° |
| 2026-05-06 21:28 | 40.11460 | -112.06215 | 13976 ft | 273 kts | 15° |
| 2026-05-06 21:28 | 40.13450 | -112.05419 | 13977 ft | 274 kts | 16° |
| 2026-05-06 21:29 | 40.15407 | -112.04636 | 13975 ft | 274 kts | 15° |
| 2026-05-06 21:29 | 40.17380 | -112.03848 | 13927 ft | 271 kts | 16° |
| 2026-05-06 21:29 | 40.19268 | -112.03090 | 13555 ft | 269 kts | 15° |
| 2026-05-06 21:29 | 40.21143 | -112.02338 | 13116 ft | 269 kts | 15° |
| 2026-05-06 21:30 | 40.22977 | -112.01605 | 12707 ft | 269 kts | 15° |
| 2026-05-06 21:30 | 40.24760 | -112.00890 | 12303 ft | 269 kts | 15° |
| 2026-05-06 21:30 | 40.26628 | -112.00140 | 11872 ft | 269 kts | 15° |
| 2026-05-06 21:30 | 40.28603 | -111.99348 | 11428 ft | 269 kts | 15° |
| 2026-05-06 21:31 | 40.30581 | -111.98553 | 11056 ft | 267 kts | 15° |
| 2026-05-06 21:31 | 40.32521 | -111.97774 | 10995 ft | 268 kts | 15° |
| 2026-05-06 21:31 | 40.34496 | -111.96981 | 10990 ft | 269 kts | 15° |
| 2026-05-06 21:31 | 40.36440 | -111.96197 | 10992 ft | 255 kts | 15° |
| 2026-05-06 21:32 | 40.38271 | -111.95459 | 10993 ft | 246 kts | 15° |
| 2026-05-06 21:32 | 40.41964 | -111.94155 | 10976 ft | 246 kts | 13° |
| 2026-05-06 21:32 | 40.43778 | -111.93659 | 10756 ft | 246 kts | 5° |
| 2026-05-06 21:33 | 40.45754 | -111.93626 | 10347 ft | 244 kts | 356° |
| 2026-05-06 21:33 | 40.47671 | -111.93830 | 9967 ft | 242 kts | 354° |
| 2026-05-06 21:33 | 40.49557 | -111.94068 | 9612 ft | 243 kts | 354° |
| 2026-05-06 21:33 | 40.51389 | -111.94297 | 9271 ft | 243 kts | 354° |
| 2026-05-06 21:34 | 40.53204 | -111.94516 | 8928 ft | 244 kts | 354° |
| 2026-05-06 21:34 | 40.55028 | -111.94730 | 8572 ft | 242 kts | 354° |
| 2026-05-06 21:34 | 40.56801 | -111.94957 | 8232 ft | 242 kts | 354° |
| 2026-05-06 21:34 | 40.58544 | -111.95189 | 7883 ft | 241 kts | 354° |
| 2026-05-06 21:35 | 40.60277 | -111.95365 | 7548 ft | 239 kts | 355° |
| 2026-05-06 21:35 | 40.61993 | -111.95500 | 7209 ft | 238 kts | 355° |
| 2026-05-06 21:35 | 40.63718 | -111.95644 | 6862 ft | 236 kts | 353° |
| 2026-05-06 21:35 | 40.65390 | -111.95870 | 6520 ft | 225 kts | 351° |
| 2026-05-06 21:36 | 40.66979 | -111.96141 | 6347 ft | 210 kts | 352° |
| 2026-05-06 21:36 | 40.68412 | -111.96302 | 6169 ft | 191 kts | 353° |
| 2026-05-06 21:36 | 40.69844 | -111.96444 | 5730 ft | 183 kts | 353° |
| 2026-05-06 21:36 | 40.71183 | -111.96565 | 5488 ft | 164 kts | 353° |
| 2026-05-06 21:37 | 40.72359 | -111.96718 | 5200 ft | 153 kts | 348° |
| 2026-05-06 21:37 | 40.73488 | -111.96873 | 4999 ft | 152 kts | 351° |
| 2026-05-06 21:37 | 40.74615 | -111.97011 | 4822 ft | 151 kts | 352° |
| 2026-05-06 21:37 | 40.75745 | -111.97128 | 4594 ft | 151 kts | 352° |
| 2026-05-06 21:38 | 40.76880 | -111.97250 | 4404 ft | 150 kts | 349° |
| 2026-05-06 21:38 | 40.77945 | -111.97368 | 4247 ft | 145 kts | 351° |
| 2026-05-06 21:38 | 40.78895 | -111.97491 | 4230 ft | 103 kts | 356° |
| 2026-05-06 21:38 | 40.79458 | -111.97546 | 4230 ft | 45 kts | 354° |
| 2026-05-06 21:39 | 40.79650 | -111.97575 | 4231 ft | 11 kts | 339° |
| 2026-05-06 21:39 | 40.79691 | -111.97673 | 4230 ft | 11 kts | 268° |
| 2026-05-06 21:39 | 40.79680 | -111.97794 | 4230 ft | 10 kts | 263° |
| 2026-05-06 21:39 | 40.79651 | -111.97873 | 4229 ft | 9 kts | 204° |
| 2026-05-06 21:40 | 40.79590 | -111.97875 | 4229 ft | 8 kts | 173° |
| 2026-05-06 21:40 | 40.79516 | -111.97864 | 4228 ft | 10 kts | 173° |
| 2026-05-06 21:40 | 40.79439 | -111.97854 | 4228 ft | 11 kts | 175° |
| 2026-05-06 21:40 | 40.79359 | -111.97847 | 4228 ft | 11 kts | 177° |
| 2026-05-06 21:41 | 40.79281 | -111.97795 | 4228 ft | 15 kts | 121° |
| 2026-05-06 21:41 | 40.79194 | -111.97730 | 4229 ft | 14 kts | 176° |
| 2026-05-06 21:41 | 40.79083 | -111.97721 | 4229 ft | 13 kts | 175° |
| 2026-05-06 21:41 | 40.78988 | -111.97709 | 4229 ft | 13 kts | 174° |
| 2026-05-06 21:42 | 40.78897 | -111.97697 | 4229 ft | 13 kts | 175° |
| 2026-05-06 21:42 | 40.78807 | -111.97688 | 4230 ft | 10 kts | 174° |
| 2026-05-06 21:42 | 40.78756 | -111.97734 | 4230 ft | 10 kts | 256° |
| 2026-05-06 21:42 | 40.78746 | -111.97835 | 4230 ft | 12 kts | 265° |
| 2026-05-06 21:43 | 40.78738 | -111.97971 | 4230 ft | 18 kts | 265° |
| 2026-05-06 21:43 | 40.78727 | -111.98132 | 4230 ft | 17 kts | 264° |
| 2026-05-06 21:43 | 40.78716 | -111.98290 | 4229 ft | 16 kts | 265° |
| 2026-05-06 21:43 | 40.78708 | -111.98428 | 4229 ft | 10 kts | 264° |
| 2026-05-06 21:44 | 40.78674 | -111.98453 | 4229 ft | 5 kts | 169° |
| 2026-05-06 21:44 | 40.78641 | -111.98437 | 4229 ft | 2 kts | 152° |
| 2026-05-06 21:44 | 40.78631 | -111.98430 | 4229 ft | 1 kts | 153° |
| 2026-05-06 21:44 | 40.78625 | -111.98426 | 4229 ft | 0 kts | 150° |